Flight Track Log - Related Links

Times and Time Zones

All times are in EST time to prevent confusion due to time zone crossing. See the N433JM flight status page for this flight to view local times or setup timezone preferences in your user account.

Time Position Orientation Groundspeed Altitude Reporting Facility
EST Latitude Longitude Course Direction KTS MPH feet Rate Location/Type
Sat 08:55:27 PM 29.2458 -82.2142 15° North 152 175 4,000  Level Jacksonville Center
Sat 08:56:41 PM 29.2939 -82.2233 351° North 152 175 6,500 1,925 Climbing Jacksonville Center
Sat 08:57:41 PM 29.3317 -82.2303 351° North 142 163 8,300 1,850 Climbing Jacksonville Center
Sat 08:58:41 PM 29.3733 -82.2397 349° North 142 163 10,200 1,850 Climbing Jacksonville Center
Sat 08:59:41 PM 29.4172 -82.2464 352° North 147 169 12,000 1,800 Climbing Jacksonville Center
Sat 09:00:41 PM 29.4633 -82.2581 348° North 153 176 13,800 1,800 Climbing Jacksonville Center
Sat 09:01:41 PM 29.5092 -82.2672 350° North 163 188 15,600 1,750 Climbing Jacksonville Center
Sat 09:02:41 PM 29.5572 -82.2767 350° North 163 188 17,300 1,600 Climbing Jacksonville Center
Sat 09:03:41 PM 29.6053 -82.2883 348° North 163 188 18,800 1,650 Climbing Jacksonville Center
Sat 09:04:41 PM 29.6556 -82.2997 349° North 168 193 20,600 1,400 Climbing Jacksonville Center
Sat 09:05:41 PM 29.7056 -82.3092 351° North 174 200 21,600 700 Climbing Jacksonville Center
Sat 09:06:41 PM 29.7475 -82.3183 349° North 180 207 22,000 200 Climbing Jacksonville Center
Sat 09:07:41 PM 29.8186 -82.3347 349° North 202 232 22,000  Level Jacksonville Center
Sat 09:08:41 PM 29.8917 -82.3536 347° North 227 261 22,000 250 Level Jacksonville Center
Sat 09:09:41 PM 29.9564 -82.3675 349° North 239 275 22,500 500 Climbing Jacksonville Center
Sat 09:10:41 PM 30.0192 -82.3817 349° North 239 275 23,000 450 Climbing Jacksonville Center
Sat 09:11:41 PM 30.0756 -82.3956 348° North 239 275 23,400 450 Climbing Jacksonville Center
Sat 09:12:41 PM 30.1342 -82.4097 348° North 229 264 23,900 500 Climbing Jacksonville Center
Sat 09:13:41 PM 30.1947 -82.4239 349° North 218 251 24,400 500 Climbing Jacksonville Center
Sat 09:14:41 PM 30.2531 -82.4381 348° North 218 251 24,900 300 Climbing Jacksonville Center
Sat 09:15:41 PM 30.3158 -82.4497 351° North 218 251 25,000 50 Climbing Jacksonville Center
Sat 09:16:41 PM 30.3764 -82.4639 349° North 218 251 25,000  Level Jacksonville Center
Sat 09:17:41 PM 30.4392 -82.4806 347° North 218 251 25,000  Level Jacksonville Center
Sat 09:18:41 PM 30.5061 -82.4947 350° North 223 257 25,000  Level Jacksonville Center
Sat 09:19:41 PM 30.5686 -82.5114 347° North 223 257 25,000  Level Jacksonville Center
Sat 09:20:41 PM 30.6333 -82.5256 349° North 223 257 25,000  Level Jacksonville Center
Sat 09:21:41 PM 30.6983 -82.5375 351° North 228 262 25,000  Level Jacksonville Center
Sat 09:22:41 PM 30.7589 -82.5517 349° North 228 262 25,000  Level Jacksonville Center
Sat 09:23:41 PM 30.8214 -82.5683 347° North 228 262 25,000  Level Jacksonville Center
Sat 09:24:41 PM 30.8842 -82.5850 347° North 228 262 25,000  Level Jacksonville Center
Sat 09:25:41 PM 30.9469 -82.5969 351° North 223 257 25,000  Level Jacksonville Center
Sat 09:26:41 PM 31.0094 -82.6114 349° North 223 257 25,000  Level Jacksonville Center
Sat 09:27:41 PM 31.0722 -82.6258 349° North 223 257 25,000  Level Jacksonville Center
Sat 09:28:41 PM 31.1433 -82.6403 350° North 218 251 25,000  Level Jacksonville Center
Sat 09:29:41 PM 31.2039 -82.6569 347° North 223 257 25,000  Level Jacksonville Center
Sat 09:30:41 PM 31.2686 -82.6714 349° North 225 259 25,000  Level Jacksonville Center
Sat 09:31:41 PM 31.3292 -82.6858 348° North 225 259 25,000  Level Jacksonville Center
Sat 09:32:41 PM 31.3917 -82.7003 349° North 225 259 25,000  Level Jacksonville Center
Sat 09:34:42 PM 31.5164 -82.7308 348° North 222 255 25,000  Level Atlanta Center
Sat 09:35:42 PM 31.5792 -82.7469 348° North 222 255 25,000  Level Atlanta Center
Sat 09:36:42 PM 31.6378 -82.7583 351° North 222 255 25,000  Level Atlanta Center
Sat 09:37:42 PM 31.6983 -82.7744 347° North 222 255 25,000  Level Atlanta Center
Sat 09:38:42 PM 31.7611 -82.7858 351° North 222 255 25,000  Level Atlanta Center
Sat 09:39:42 PM 31.8217 -82.8022 347° North 222 255 25,000  Level Atlanta Center
Sat 09:40:42 PM 31.8783 -82.8161 348° North 217 250 25,000  Level Atlanta Center
Sat 09:41:42 PM 31.9411 -82.8322 348° North 222 255 25,000  Level Atlanta Center
Sat 09:42:42 PM 32.0039 -82.8461 349° North 222 255 25,000  Level Atlanta Center
Sat 09:43:42 PM 32.0644 -82.8600 349° North 222 255 25,000  Level Atlanta Center
Sat 09:44:42 PM 32.1253 -82.8764 347° North 222 255 25,000  Level Atlanta Center
Sat 09:45:42 PM 32.1858 -82.8878 351° North 222 255 25,000  Level Atlanta Center
Sat 09:46:42 PM 32.2486 -82.9042 348° North 222 255 25,000  Level Atlanta Center
Sat 09:47:42 PM 32.3092 -82.9183 349° North 222 255 25,000  Level Atlanta Center
Sat 09:48:42 PM 32.3700 -82.9322 349° North 222 255 25,000  Level Atlanta Center
Sat 09:49:42 PM 32.4347 -82.9486 348° North 222 255 25,000  Level Atlanta Center
Sat 09:50:42 PM 32.4975 -82.9650 348° North 222 255 25,000  Level Atlanta Center
Sat 09:51:42 PM 32.5581 -82.9767 351° North 222 255 25,000  Level Atlanta Center
Sat 09:52:42 PM 32.6147 -82.9908 348° North 222 255 25,000  Level Atlanta Center
Sat 09:53:42 PM 32.6753 -83.0047 349° North 222 255 25,000  Level Atlanta Center
Sat 09:54:42 PM 32.7339 -83.0214 347° North 222 255 25,000  Level Atlanta Center
Sat 09:55:42 PM 32.7925 -83.0356 349° North 222 255 25,000  Level Atlanta Center
Sat 09:56:42 PM 32.8508 -83.0472 350° North 222 255 25,000  Level Atlanta Center
Sat 09:57:42 PM 32.9094 -83.0614 349° North 222 255 25,000  Level Atlanta Center
Sat 09:58:42 PM 32.9703 -83.0756 349° North 222 255 25,000 -100 Level Atlanta Center
Sat 09:59:42 PM 33.0286 -83.0897 348° North 217 250 24,800 -250 Descending Atlanta Center
Sat 10:00:42 PM 33.0894 -83.1067 347° North 223 257 24,500 -350 Descending Atlanta Center
Sat 10:01:42 PM 33.1522 -83.1208 349° North 223 257 24,100 -250 Descending Atlanta Center
Sat 10:02:42 PM 33.2169 -83.1350 350° North 229 264 24,000 -50 Descending Atlanta Center
Sat 10:03:42 PM 33.2733 -83.1492 348° North 221 254 24,000  Level Atlanta Center
Sat 10:04:42 PM 33.3319 -83.1661 346° North 221 254 24,000  Level Atlanta Center
Sat 10:05:42 PM 33.3864 -83.1781 350° North 219 252 24,000  Level Atlanta Center
Sat 10:06:42 PM 33.4447 -83.1925 348° North 219 252 24,000  Level Atlanta Center
Sat 10:07:42 PM 33.5033 -83.2092 347° North 219 252 24,000  Level Atlanta Center
Sat 10:08:42 PM 33.5619 -83.2211 350° North 219 252 24,000  Level Atlanta Center
Sat 10:09:42 PM 33.6206 -83.2356 348° North 219 252 24,000  Level Atlanta Center
Sat 10:10:42 PM 33.6769 -83.2500 348° North 219 252 24,000  Level Atlanta Center
Sat 10:11:42 PM 33.7356 -83.2644 348° North 219 252 24,000  Level Atlanta Center
Sat 10:12:42 PM 33.8003 -83.2789 349° North 219 252 24,000  Level Atlanta Center
Sat 10:13:42 PM 33.8608 -83.2933 349° North 219 252 24,000  Level Atlanta Center
Sat 10:14:42 PM 33.9153 -83.3078 348° North 214 246 24,000  Level Atlanta Center
Sat 10:15:42 PM 33.9758 -83.3197 351° North 214 246 24,000  Level Atlanta Center
Sat 10:16:42 PM 34.0303 -83.3344 347° North 209 241 24,000  Level Atlanta Center
Sat 10:17:42 PM 34.0886 -83.3489 348° North 209 241 24,000  Level Atlanta Center
Sat 10:18:42 PM 34.1450 -83.3611 350° North 204 235 24,000  Level Atlanta Center
Sat 10:19:42 PM 34.2036 -83.3783 346° North 202 232 24,000  Level Atlanta Center
Sat 10:20:42 PM 34.2600 -83.3903 350° North 202 232 24,000  Level Atlanta Center
Sat 10:21:42 PM 34.3164 -83.4050 348° North 202 232 24,000  Level Atlanta Center
Sat 10:22:42 PM 34.3728 -83.4197 348° North 202 232 24,000  Level Atlanta Center
Sat 10:23:42 PM 34.4231 -83.4319 349° North 202 232 24,000  Level Atlanta Center
Sat 10:24:42 PM 34.4794 -83.4442 350° North 202 232 24,000  Level Atlanta Center
Sat 10:25:42 PM 34.5381 -83.4614 346° North 202 232 24,000  Level Atlanta Center
Sat 10:26:42 PM 34.5922 -83.4736 349° North 202 232 24,000  Level Atlanta Center
Sat 10:27:42 PM 34.6486 -83.4883 348° North 202 232 24,000  Level Atlanta Center
Sat 10:28:42 PM 34.7114 -83.5031 349° North 202 232 24,000  Level Atlanta Center
Sat 10:29:42 PM 34.7636 -83.5206 345° North 202 232 24,000  Level Atlanta Center
Sat 10:30:42 PM 34.8200 -83.5353 348° North 202 232 24,000  Level Atlanta Center
Sat 10:31:42 PM 34.8806 -83.5475 351° North 207 238 24,000  Level Atlanta Center
Sat 10:32:42 PM 34.9369 -83.5625 348° North 207 238 24,000  Level Atlanta Center
Sat 10:33:42 PM 34.9892 -83.5775 347° North 207 238 24,000  Level Atlanta Center
Sat 10:34:42 PM 35.0436 -83.5922 348° North 207 238 24,000  Level Atlanta Center
Sat 10:35:42 PM 35.0958 -83.6047 349° North 196 226 24,000  Level Atlanta Center
Sat 10:36:42 PM 35.1481 -83.6197 347° North 196 226 24,000  Level Atlanta Center
Sat 10:37:42 PM 35.2022 -83.6319 350° North 196 226 24,000  Level Atlanta Center
Sat 10:38:42 PM 35.2586 -83.6469 348° North 196 226 24,000  Level Atlanta Center
Sat 10:39:42 PM 35.3131 -83.6594 349° North 201 231 24,000  Level Atlanta Center
Sat 10:40:42 PM 35.3631 -83.6719 348° North 201 231 24,000  Level Atlanta Center
Sat 10:41:42 PM 35.4153 -83.6872 347° North 196 226 24,000  Level Atlanta Center
Sat 10:42:42 PM 35.4653 -83.6997 348° North 191 220 24,000  Level Atlanta Center
Sat 10:43:42 PM 35.5175 -83.7122 349° North 191 220 24,000  Level Atlanta Center
Sat 10:44:42 PM 35.5697 -83.7247 349° North 191 220 24,000  Level Atlanta Center
Sat 10:45:42 PM 35.6219 -83.7397 347° North 186 214 24,000  Level Atlanta Center
Sat 10:46:42 PM 35.6719 -83.7525 348° North 186 214 24,000  Level Atlanta Center
Sat 10:47:42 PM 35.7242 -83.7650 349° North 186 214 24,000  Level Atlanta Center
Sat 10:48:42 PM 35.7744 -83.7778 348° North 181 208 24,000  Level Atlanta Center
Sat 10:49:42 PM 35.8244 -83.7903 349° North 181 208 24,000  Level Atlanta Center
Sat 10:50:42 PM 35.8767 -83.8056 347° North 181 208 24,000  Level Atlanta Center
Sat 10:51:42 PM 35.9267 -83.8156 351° North 181 208 24,000  Level Atlanta Center
Sat 10:52:42 PM 35.9767 -83.8333 344° North 181 208 24,000  Level Atlanta Center
Sat 10:53:42 PM 36.0269 -83.8461 348° North 181 208 24,000  Level Atlanta Center
Sat 10:54:42 PM 36.0789 -83.8589 349° North 181 208 24,000  Level Atlanta Center
Sat 10:55:33 PM 36.1292 -83.8675 352° North 187 215 24,000  Level Indianapolis Center
Sat 10:56:33 PM 36.1794 -83.8817 347° North 185 213 24,000  Level Indianapolis Center
Sat 10:57:34 PM 36.2300 -83.8944 348° North 185 213 24,000  Level Indianapolis Center
Sat 10:58:34 PM 36.2814 -83.9081 348° North 187 215 24,000  Level Indianapolis Center
Sat 10:59:35 PM 36.3322 -83.9217 348° North 186 214 24,000  Level Indianapolis Center
Sat 11:00:47 PM 36.3808 -83.9342 348° North 180 207 24,000  Level Indianapolis Center
Sat 11:01:48 PM 36.4411 -83.9503 348° North 183 211 24,000  Level Indianapolis Center
Sat 11:02:48 PM 36.4917 -83.9631 349° North 186 214 24,000  Level Indianapolis Center
Sat 11:03:48 PM 36.5392 -83.9761 348° North 183 211 24,000  Level Indianapolis Center
Sat 11:04:49 PM 36.5897 -83.9889 349° North 184 212 24,000 -198 Level Indianapolis Center
Sat 11:05:49 PM 36.6414 -84.0025 348° North 188 216 23,600 -350 Descending Indianapolis Center
Sat 11:06:49 PM 36.6969 -84.0172 348° North 199 229 23,300 -298 Descending Indianapolis Center
Sat 11:07:50 PM 36.7519 -84.0308 349° North 200 230 23,000 -298 Descending Indianapolis Center
Sat 11:08:50 PM 36.8078 -84.0467 347° North 203 234 22,700 -298 Descending Indianapolis Center
Sat 11:09:51 PM 36.8628 -84.0611 348° North 202 232 22,400 -248 Descending Indianapolis Center
Sat 11:10:51 PM 36.9181 -84.0758 348° North 202 232 22,200 -350 Descending Indianapolis Center
Sat 11:11:51 PM 36.9728 -84.0911 347° North 201 231 21,700 -545 Descending Indianapolis Center
Sat 11:12:52 PM 37.0306 -84.1058 349° North 207 238 21,100 -645 Descending Indianapolis Center
Sat 11:13:52 PM 37.0875 -84.1217 347° North 208 239 20,400 -645 Descending Indianapolis Center
Sat 11:14:53 PM 37.1450 -84.1367 348° North 210 242 19,800 -694 Descending Indianapolis Center
Sat 11:15:53 PM 37.2017 -84.1522 348° North 209 241 19,000 -850 Descending Indianapolis Center
Sat 11:16:53 PM 37.2619 -84.1672 349° North 216 249 18,100 -893 Descending Indianapolis Center
Sat 11:17:54 PM 37.3217 -84.1853 346° North 219 252 17,200 -843 Descending Indianapolis Center
Sat 11:18:54 PM 37.3825 -84.1994 350° North 220 253 16,400 -694 Descending Indianapolis Center
Sat 11:19:55 PM 37.4367 -84.2161 346° North 218 251 15,800 -843 Descending Indianapolis Center
Sat 11:20:55 PM 37.5003 -84.2325 348° North 218 251 14,700 -950 Descending Indianapolis Center
Sat 11:21:55 PM 37.5622 -84.2489 348° North 211 243 13,900 -893 Descending Indianapolis Center
Sat 11:22:56 PM 37.6131 -84.2628 348° North 208 239 12,900 -942 Descending Indianapolis Center
Sat 11:23:56 PM 37.6692 -84.2794 347° North 207 238 12,000 -850 Descending Indianapolis Center
Sat 11:24:56 PM 37.7264 -84.2936 349° North 208 239 11,200 -843 Descending Indianapolis Center
Sat 11:25:57 PM 37.7817 -84.3100 347° North 204 235 10,300 -843 Descending Indianapolis Center
Sat 11:26:57 PM 37.8383 -84.3242 349° North 206 237 9,500 -850 Descending Indianapolis Center
Sat 11:27:57 PM 37.8947 -84.3389 348° North 206 237 8,600 -942 Descending Indianapolis Center
Sat 11:28:58 PM 37.9525 -84.3553 347° North 210 242 7,600 -942 Descending Indianapolis Center
Sat 11:29:58 PM 38.0183 -84.3756 346° North 217 250 6,700 -800 Descending Indianapolis Center
Sat 11:30:58 PM 38.0786 -84.3922 348° North 217 250 6,000 -700 Descending Indianapolis Center
Sat 11:32:00 PM 38.1377 -84.4075 351° North  Level FlightAware Approximate
Sat 11:39:00 PM 38.2333 -84.4333 345° North  Level FlightAware Approximate
Sat 11:40:00 PM 38.2344 -84.4347 345° North  Level Estimated
Sat 11:41:00 PM 38.2333 -84.4333 345° North  Level FlightAware Approximate

Login

Don't have an account? Register now (free) for customized features, flight alerts, and more!